createdAt,value
2022-09-10T00:01:35.904Z,4.05
2022-09-10T00:04:11.707Z,3.83
2022-09-10T00:06:39.616Z,4.30
2022-09-10T00:09:08.235Z,4.22
2022-09-10T00:11:38.514Z,4.50
2022-09-10T00:14:11.915Z,4.32
2022-09-10T00:16:38.970Z,3.80
2022-09-10T00:19:06.731Z,4.45
2022-09-10T00:21:35.569Z,3.80
2022-09-10T00:24:05.496Z,3.92
2022-09-10T00:26:39.648Z,4.10
2022-09-10T00:29:11.701Z,3.90
2022-09-10T00:31:40.010Z,3.60
2022-09-10T00:34:09.239Z,3.58
2022-09-10T00:36:43.814Z,4.05
2022-09-10T00:39:17.168Z,3.65
2022-09-10T00:41:47.969Z,4.78
2022-09-10T00:44:40.198Z,5.40
2022-09-10T00:47:39.167Z,6.00
2022-09-10T00:50:22.145Z,6.43
2022-09-10T00:52:52.937Z,6.60
2022-09-10T00:55:22.094Z,5.95
2022-09-10T00:57:54.886Z,6.03
2022-09-10T01:00:23.009Z,6.32
2022-09-10T01:02:50.466Z,7.03
2022-09-10T01:05:19.728Z,7.30
2022-09-10T01:07:48.197Z,7.53
2022-09-10T01:10:31.054Z,7.20
2022-09-10T01:13:27.981Z,7.28
2022-09-10T01:16:19.111Z,6.65
2022-09-10T01:19:28.615Z,6.78
2022-09-10T01:22:26.389Z,6.53
2022-09-10T01:25:26.700Z,5.55
2022-09-10T01:27:59.722Z,7.72
2022-09-10T01:30:41.474Z,7.00
2022-09-10T01:33:34.591Z,7.28
2022-09-10T01:36:12.596Z,6.40
2022-09-10T01:38:43.662Z,6.05
2022-09-10T01:41:13.655Z,6.00
2022-09-10T01:43:43.525Z,6.10
2022-09-10T01:46:47.761Z,6.05
2022-09-10T01:49:32.118Z,5.60
2022-09-10T01:52:28.513Z,5.45
2022-09-10T01:55:09.110Z,5.32
2022-09-10T01:58:30.735Z,5.38
2022-09-10T02:01:45.762Z,5.57
2022-09-10T02:04:16.413Z,5.50
2022-09-10T02:06:50.055Z,5.13
2022-09-10T02:09:19.263Z,5.18
2022-09-10T02:11:56.090Z,5.40
2022-09-10T02:14:55.204Z,5.47
2022-09-10T02:17:37.068Z,5.63
2022-09-10T02:20:11.023Z,5.55
2022-09-10T02:22:44.128Z,5.75
2022-09-10T02:25:12.235Z,5.50
2022-09-10T02:27:43.410Z,5.68
2022-09-10T02:30:11.766Z,5.70
2022-09-10T02:32:40.149Z,5.47
2022-09-10T02:35:08.657Z,5.97
2022-09-10T02:37:36.010Z,6.07
2022-09-10T02:40:05.370Z,5.75
2022-09-10T02:42:34.247Z,6.47
2022-09-10T02:45:08.520Z,6.25
2022-09-10T02:47:36.952Z,6.05
2022-09-10T02:50:04.872Z,5.90
2022-09-10T02:52:34.196Z,5.88
2022-09-10T02:55:04.369Z,5.85
2022-09-10T02:57:31.502Z,5.63
2022-09-10T02:59:59.202Z,5.10
2022-09-10T03:02:28.980Z,5.45
2022-09-10T03:04:56.098Z,5.53
2022-09-10T03:07:25.272Z,5.53
2022-09-10T03:09:52.734Z,4.95
2022-09-10T03:12:21.560Z,6.03
2022-09-10T03:14:50.480Z,5.50
2022-09-10T03:17:17.881Z,4.97
2022-09-10T03:19:44.988Z,5.28
2022-09-10T03:22:12.082Z,5.32
2022-09-10T03:24:39.877Z,5.40
2022-09-10T03:27:06.932Z,5.32
2022-09-10T03:29:33.951Z,5.10
2022-09-10T03:32:03.705Z,5.20
2022-09-10T03:34:30.766Z,5.22
2022-09-10T03:36:57.806Z,5.53
2022-09-10T03:39:26.054Z,5.00
2022-09-10T03:41:53.174Z,5.35
2022-09-10T03:44:20.329Z,5.05
2022-09-10T03:46:51.207Z,5.30
2022-09-10T03:49:18.946Z,5.45
2022-09-10T03:51:46.857Z,5.15
2022-09-10T03:54:15.831Z,5.05
2022-09-10T03:56:44.225Z,5.13
2022-09-10T03:59:13.413Z,4.63
2022-09-10T04:01:42.161Z,5.10
2022-09-10T04:04:09.317Z,4.65
2022-09-10T04:06:37.599Z,5.03
2022-09-10T04:09:05.588Z,5.30
2022-09-10T04:11:33.217Z,4.90
2022-09-10T04:14:00.927Z,4.45
2022-09-10T04:16:32.616Z,5.20
2022-09-10T04:19:00.058Z,4.95
2022-09-10T04:21:31.618Z,5.03
2022-09-10T04:24:00.578Z,5.20
2022-09-10T04:26:30.318Z,5.35
2022-09-10T04:28:57.522Z,4.90
2022-09-10T04:31:25.150Z,4.85
2022-09-10T04:33:56.132Z,4.72
2022-09-10T04:36:27.158Z,4.80
2022-09-10T04:38:54.436Z,5.10
2022-09-10T04:41:21.830Z,5.40
2022-09-10T04:43:50.179Z,4.90
2022-09-10T04:46:17.861Z,5.00
2022-09-10T04:48:46.122Z,5.10
2022-09-10T04:51:18.337Z,5.00
2022-09-10T04:53:52.042Z,4.95
2022-09-10T04:56:22.468Z,4.70
2022-09-10T04:58:49.995Z,5.20
2022-09-10T05:01:17.219Z,5.22
2022-09-10T05:03:46.224Z,4.70
2022-09-10T05:06:14.029Z,4.80
2022-09-10T05:08:41.198Z,4.68
2022-09-10T05:11:10.482Z,5.05
2022-09-10T05:13:37.518Z,5.10
2022-09-10T05:16:06.115Z,4.57
2022-09-10T05:18:35.143Z,4.55
2022-09-10T05:21:04.062Z,4.55
2022-09-10T05:23:32.836Z,5.60
2022-09-10T05:26:04.416Z,5.43
2022-09-10T05:28:31.539Z,6.28
2022-09-10T05:30:58.807Z,6.03
2022-09-10T05:33:28.910Z,5.82
2022-09-10T05:35:56.562Z,5.85
2022-09-10T05:38:24.763Z,6.03
2022-09-10T05:40:52.625Z,5.43
2022-09-10T05:43:21.020Z,5.35
2022-09-10T05:45:48.945Z,5.55
2022-09-10T05:48:17.559Z,5.60
2022-09-10T05:50:45.617Z,5.07
2022-09-10T05:53:13.752Z,5.53
2022-09-10T05:55:41.577Z,5.50
2022-09-10T05:58:09.160Z,4.93
2022-09-10T06:00:38.336Z,4.50
2022-09-10T06:03:06.032Z,4.70
2022-09-10T06:05:40.487Z,4.40
2022-09-10T06:08:09.114Z,4.20
2022-09-10T06:10:40.677Z,4.07
2022-09-10T06:13:07.916Z,4.13
2022-09-10T06:15:37.976Z,3.78
2022-09-10T06:18:05.315Z,3.60
2022-09-10T06:20:33.133Z,3.85
2022-09-10T06:23:02.404Z,3.40
2022-09-10T06:25:29.466Z,3.78
2022-09-10T06:27:57.719Z,3.72
2022-09-10T06:30:26.627Z,3.80
2022-09-10T06:32:53.839Z,4.10
2022-09-10T06:35:21.600Z,3.83
2022-09-10T06:37:50.601Z,4.18
2022-09-10T06:40:18.610Z,3.63
2022-09-10T06:42:45.750Z,3.90
2022-09-10T06:45:13.289Z,3.58
2022-09-10T06:48:37.670Z,3.22
2022-09-10T06:51:01.050Z,3.40
2022-09-10T06:53:36.318Z,3.40
2022-09-10T06:56:08.697Z,3.00
2022-09-10T06:58:39.508Z,3.05
2022-09-10T07:01:17.593Z,3.08
2022-09-10T07:03:55.733Z,2.85
2022-09-10T07:06:26.487Z,2.90
2022-09-10T07:08:59.067Z,2.58
2022-09-10T07:11:32.232Z,2.60
2022-09-10T07:14:02.191Z,2.67
2022-09-10T07:16:31.990Z,2.80
2022-09-10T07:19:00.514Z,2.28
2022-09-10T07:21:37.854Z,2.40
2022-09-10T07:24:12.633Z,2.30
2022-09-10T07:26:42.499Z,2.42
2022-09-10T07:29:10.574Z,2.10
2022-09-10T07:31:38.739Z,2.10
2022-09-10T07:36:37.581Z,2.10
2022-09-10T07:39:05.209Z,1.90
2022-09-10T07:41:36.207Z,1.90
2022-09-10T07:44:07.126Z,1.90
2022-09-10T07:46:38.671Z,2.00
2022-09-10T07:49:10.821Z,2.00
2022-09-10T07:51:40.714Z,1.80
2022-09-10T07:54:08.098Z,1.60
2022-09-10T07:56:46.820Z,1.77
2022-09-10T07:59:15.635Z,1.80
2022-09-10T08:01:52.514Z,1.90
2022-09-10T08:04:21.199Z,1.85
2022-09-10T08:06:48.220Z,1.73
2022-09-10T08:09:17.865Z,1.83
2022-09-10T08:11:51.579Z,1.83
2022-09-10T08:14:21.877Z,1.90
2022-09-10T08:16:52.550Z,1.73
2022-09-10T08:19:21.501Z,1.60
2022-09-10T08:21:49.794Z,1.50
2022-09-10T08:24:23.505Z,1.60
2022-09-10T08:26:52.898Z,1.70
2022-09-10T08:29:20.196Z,1.50
2022-09-10T08:31:47.533Z,1.60
2022-09-10T08:34:23.126Z,1.80
2022-09-10T08:36:57.005Z,1.60
2022-09-10T08:39:24.899Z,1.90
2022-09-10T08:42:09.402Z,1.60
2022-09-10T08:45:07.073Z,1.80
2022-09-10T08:47:58.844Z,2.08
2022-09-10T08:51:00.578Z,1.83
2022-09-10T08:53:53.690Z,1.70
2022-09-10T08:56:25.140Z,1.80
2022-09-10T08:59:18.476Z,1.77
2022-09-10T09:02:37.913Z,1.70
2022-09-10T09:05:17.116Z,1.80
2022-09-10T09:07:48.432Z,1.85
2022-09-10T09:10:26.018Z,2.10
2022-09-10T09:13:32.609Z,1.88
2022-09-10T09:16:17.676Z,1.63
2022-09-10T09:19:14.662Z,1.73
2022-09-10T09:21:56.734Z,1.50
2022-09-10T09:24:59.205Z,1.60
2022-09-10T09:27:36.323Z,1.48
2022-09-10T09:30:19.351Z,1.42
2022-09-10T09:32:47.989Z,1.48
2022-09-10T09:35:34.773Z,1.50
2022-09-10T09:38:08.010Z,1.50
2022-09-10T09:40:41.650Z,1.25
2022-09-10T09:44:00.383Z,1.40
2022-09-10T09:46:30.961Z,1.50
2022-09-10T09:49:03.880Z,1.30
2022-09-10T09:51:35.765Z,1.50
2022-09-10T09:57:03.318Z,1.30
2022-09-10T09:59:34.901Z,1.13
2022-09-10T10:02:24.813Z,1.25
2022-09-10T10:05:23.155Z,1.35
2022-09-10T10:07:50.750Z,1.10
2022-09-10T10:10:28.053Z,1.25
2022-09-10T10:12:56.178Z,1.10
2022-09-10T10:15:39.049Z,1.00
2022-09-10T10:18:31.777Z,1.27
2022-09-10T10:21:15.999Z,1.10
2022-09-10T10:23:44.333Z,1.20
2022-09-10T10:26:23.991Z,1.08
2022-09-10T10:29:06.289Z,1.20
2022-09-10T10:31:56.056Z,1.00
2022-09-10T10:34:48.713Z,1.08
2022-09-10T10:37:53.615Z,1.00
2022-09-10T10:40:48.709Z,1.20
2022-09-10T10:43:51.389Z,1.27
2022-09-10T10:46:30.294Z,1.55
2022-09-10T10:49:19.946Z,1.10
2022-09-10T10:52:13.980Z,1.20
2022-09-10T10:55:18.702Z,0.98
2022-09-10T10:58:13.325Z,1.25
2022-09-10T11:00:49.677Z,1.20
2022-09-10T11:03:27.848Z,1.20
2022-09-10T11:06:08.420Z,1.33
2022-09-10T11:08:56.321Z,1.20
2022-09-10T11:11:33.355Z,1.30
2022-09-10T11:14:33.349Z,1.13
2022-09-10T11:17:13.341Z,1.30
2022-09-10T11:20:29.121Z,1.30
2022-09-10T11:23:22.651Z,1.25
2022-09-10T11:26:13.523Z,1.15
2022-09-10T11:29:20.784Z,0.90
2022-09-10T11:32:04.757Z,1.10
2022-09-10T11:34:47.654Z,1.40
2022-09-10T11:37:40.192Z,1.50
2022-09-10T11:40:19.998Z,1.30
2022-09-10T11:42:56.536Z,1.20
2022-09-10T11:45:52.611Z,1.30
2022-09-10T11:49:03.466Z,1.35
2022-09-10T11:51:38.343Z,1.20
2022-09-10T11:54:14.025Z,1.40
2022-09-10T11:57:09.753Z,1.20
2022-09-10T12:00:03.879Z,1.40
2022-09-10T12:02:58.541Z,1.40
2022-09-10T12:08:49.498Z,1.35
2022-09-10T12:11:55.971Z,1.35
2022-09-10T12:14:24.039Z,1.40
2022-09-10T12:16:59.582Z,1.40
2022-09-10T12:19:34.421Z,1.50
2022-09-10T12:22:09.414Z,1.70
2022-09-10T12:24:39.273Z,1.60
2022-09-10T12:27:07.801Z,1.75
2022-09-10T12:29:40.792Z,1.60
2022-09-10T12:32:08.678Z,1.60
2022-09-10T12:34:37.676Z,1.58
2022-09-10T12:37:04.771Z,1.60
2022-09-10T12:39:34.086Z,1.63
2022-09-10T12:42:23.443Z,1.65
2022-09-10T12:44:51.113Z,1.70
2022-09-10T12:47:18.064Z,1.50
2022-09-10T12:50:04.963Z,1.50
2022-09-10T12:52:35.197Z,1.63
2022-09-10T12:55:54.769Z,1.50
2022-09-10T12:59:04.437Z,1.60
2022-09-10T13:01:47.954Z,1.70
2022-09-10T13:04:28.818Z,1.60
2022-09-10T13:07:03.062Z,1.40
2022-09-10T13:09:38.303Z,1.45
2022-09-10T13:12:22.144Z,1.60
2022-09-10T13:14:54.886Z,1.60
2022-09-10T13:18:02.399Z,1.50
2022-09-10T13:20:35.434Z,1.40
2022-09-10T13:23:08.870Z,1.60
2022-09-10T13:25:45.870Z,1.80
2022-09-10T13:28:33.878Z,1.48
2022-09-10T13:31:11.228Z,1.60
2022-09-10T13:34:15.966Z,1.70
2022-09-10T13:37:13.589Z,1.38
2022-09-10T13:39:50.098Z,1.27
2022-09-10T13:42:39.687Z,1.42
2022-09-10T13:45:51.941Z,1.50
2022-09-10T13:49:04.445Z,1.40
2022-09-10T13:51:56.620Z,1.15
2022-09-10T13:54:53.208Z,1.33
2022-09-10T13:57:45.141Z,1.35
2022-09-10T14:00:25.590Z,1.40
2022-09-10T14:02:56.940Z,1.48
2022-09-10T14:05:26.540Z,1.45
2022-09-10T14:07:58.306Z,1.30
2022-09-10T14:10:26.290Z,1.38
2022-09-10T14:12:55.786Z,1.30
2022-09-10T14:15:35.178Z,1.33
2022-09-10T14:18:03.418Z,1.30
2022-09-10T14:20:34.646Z,1.40
2022-09-10T14:23:12.845Z,1.35
2022-09-10T14:25:43.768Z,1.40
2022-09-10T14:28:24.396Z,1.50
2022-09-10T14:31:18.710Z,1.15
2022-09-10T14:33:46.018Z,1.40
2022-09-10T14:36:33.725Z,1.20
2022-09-10T14:39:17.736Z,1.35
2022-09-10T14:41:46.285Z,1.52
2022-09-10T14:44:20.365Z,1.52
2022-09-10T14:47:01.025Z,1.60
2022-09-10T14:49:34.808Z,1.52
2022-09-10T14:52:05.416Z,1.50
2022-09-10T14:54:34.828Z,1.73
2022-09-10T14:57:13.979Z,1.58
2022-09-10T14:59:44.623Z,1.50
2022-09-10T15:02:31.979Z,1.50
2022-09-10T15:04:59.849Z,1.67
2022-09-10T15:07:27.813Z,1.73
2022-09-10T15:09:55.164Z,1.73
2022-09-10T15:12:27.768Z,1.60
2022-09-10T15:14:57.087Z,1.65
2022-09-10T15:17:24.962Z,1.90
2022-09-10T15:19:52.200Z,1.77
2022-09-10T15:22:24.934Z,1.70
2022-09-10T15:25:10.789Z,1.70
2022-09-10T15:27:38.722Z,2.00
2022-09-10T15:30:07.229Z,1.65
2022-09-10T15:32:34.331Z,1.77
2022-09-10T15:35:04.329Z,2.10
2022-09-10T15:37:32.217Z,1.90
2022-09-10T15:39:59.701Z,1.80
2022-09-10T15:42:26.713Z,1.80
2022-09-10T15:44:54.292Z,2.00
2022-09-10T15:47:21.735Z,1.80
2022-09-10T15:49:48.832Z,1.83
2022-09-10T15:52:16.183Z,1.90
2022-09-10T15:54:43.922Z,1.80
2022-09-10T15:57:11.775Z,1.75
2022-09-10T15:59:39.283Z,2.20
2022-09-10T16:02:06.642Z,2.20
2022-09-10T16:04:36.187Z,1.95
2022-09-10T16:07:04.565Z,1.92
2022-09-10T16:09:32.433Z,1.90
2022-09-10T16:11:59.650Z,1.80
2022-09-10T16:14:27.110Z,1.90
2022-09-10T16:16:54.170Z,2.10
2022-09-10T16:19:21.266Z,2.00
2022-09-10T16:21:48.865Z,1.90
2022-09-10T16:24:16.007Z,1.70
2022-09-10T16:26:45.311Z,1.80
2022-09-10T16:29:19.507Z,1.85
2022-09-10T16:31:48.272Z,1.90
2022-09-10T16:34:18.817Z,1.58
2022-09-10T16:36:48.865Z,1.60
2022-09-10T16:39:18.971Z,1.77
2022-09-10T16:41:49.111Z,1.70
2022-09-10T16:44:18.187Z,1.63
2022-09-10T16:46:46.996Z,1.65
2022-09-10T16:49:18.118Z,1.60
2022-09-10T16:51:49.199Z,1.73
2022-09-10T16:54:19.949Z,1.73
2022-09-10T16:56:48.840Z,1.70
2022-09-10T16:59:22.946Z,1.42
2022-09-10T17:01:51.875Z,1.60
2022-09-10T17:04:28.188Z,1.50
2022-09-10T17:06:57.542Z,1.50
2022-09-10T17:09:25.267Z,1.60
2022-09-10T17:11:52.705Z,1.70
2022-09-10T17:14:20.379Z,1.90
2022-09-10T17:16:48.658Z,1.70
2022-09-10T17:19:21.360Z,1.75
2022-09-10T17:21:51.397Z,1.70
2022-09-10T17:24:22.410Z,1.50
2022-09-10T17:26:51.482Z,1.77
2022-09-10T17:29:22.658Z,1.70
2022-09-10T17:31:55.473Z,1.53
2022-09-10T17:34:24.515Z,1.55
2022-09-10T17:36:51.970Z,1.70
2022-09-10T17:39:19.182Z,1.67
2022-09-10T17:41:47.719Z,1.88
2022-09-10T17:44:16.374Z,1.75
2022-09-10T17:46:43.697Z,2.10
2022-09-10T17:49:14.502Z,1.90
2022-09-10T17:51:42.725Z,2.20
2022-09-10T17:54:10.914Z,2.33
2022-09-10T17:56:38.429Z,2.40
2022-09-10T17:59:06.367Z,1.95
2022-09-10T18:01:40.008Z,1.75
2022-09-10T18:04:12.522Z,1.40
2022-09-10T18:06:40.762Z,1.40
2022-09-10T18:09:08.680Z,1.40
2022-09-10T18:11:40.752Z,1.23
2022-09-10T18:14:08.950Z,1.25
2022-09-10T18:16:37.889Z,1.50
2022-09-10T18:19:13.794Z,1.13
2022-09-10T18:21:44.644Z,1.20
2022-09-10T18:24:22.735Z,1.00
2022-09-10T18:26:57.257Z,1.05
2022-09-10T18:29:28.356Z,1.10
2022-09-10T18:32:00.612Z,0.98
2022-09-10T18:34:31.124Z,1.08
2022-09-10T18:37:03.314Z,1.00
2022-09-10T18:39:32.952Z,0.80
2022-09-10T18:42:01.336Z,0.80
2022-09-10T18:44:36.983Z,0.90
2022-09-10T18:47:27.894Z,0.65
2022-09-10T18:49:58.310Z,0.90
2022-09-10T18:52:27.050Z,0.70
2022-09-10T18:54:54.234Z,0.70
2022-09-10T18:57:21.244Z,0.90
2022-09-10T18:59:48.854Z,0.68
2022-09-10T19:02:17.802Z,0.77
2022-09-10T19:05:00.729Z,0.73
2022-09-10T19:07:32.649Z,0.80
2022-09-10T19:10:04.004Z,0.70
2022-09-10T19:12:31.203Z,0.70
2022-09-10T19:14:58.789Z,0.68
2022-09-10T19:17:25.884Z,0.80
2022-09-10T19:19:52.855Z,0.80
2022-09-10T19:22:20.349Z,0.80
2022-09-10T19:24:55.839Z,0.90
2022-09-10T19:27:24.478Z,0.90
2022-09-10T19:29:52.033Z,0.93
2022-09-10T19:32:20.172Z,0.90
2022-09-10T19:34:52.330Z,0.80
2022-09-10T19:37:19.814Z,0.80
2022-09-10T19:39:47.515Z,0.98
2022-09-10T19:42:15.584Z,0.80
2022-09-10T19:44:43.613Z,0.90
2022-09-10T19:47:10.642Z,1.13
2022-09-10T19:49:39.147Z,0.80
2022-09-10T19:52:06.222Z,0.90
2022-09-10T19:54:33.420Z,0.90
2022-09-10T19:57:02.365Z,0.98
2022-09-10T19:59:29.394Z,0.95
2022-09-10T20:01:56.663Z,0.85
2022-09-10T20:04:25.858Z,1.00
2022-09-10T20:06:53.210Z,1.00
2022-09-10T20:09:20.361Z,1.35
2022-09-10T20:11:48.029Z,1.20
2022-09-10T20:14:15.489Z,1.10
2022-09-10T20:16:45.663Z,1.00
2022-09-10T20:19:18.438Z,1.10
2022-09-10T20:21:47.648Z,1.17
2022-09-10T20:24:16.499Z,1.00
2022-09-10T20:26:46.153Z,1.20
2022-09-10T20:29:17.898Z,1.25
2022-09-10T20:31:48.644Z,1.30
2022-09-10T20:34:21.916Z,1.25
2022-09-10T20:36:51.369Z,1.60
2022-09-10T20:39:25.226Z,1.52
2022-09-10T20:41:53.385Z,1.58
2022-09-10T20:44:20.992Z,1.50
2022-09-10T20:46:48.131Z,1.80
2022-09-10T20:49:16.885Z,1.52
2022-09-10T20:51:44.737Z,1.60
2022-09-10T20:54:16.732Z,1.77
2022-09-10T20:59:15.477Z,1.80
2022-09-10T21:01:46.043Z,1.25
2022-09-10T21:04:14.834Z,1.73
2022-09-10T21:06:42.292Z,1.55
2022-09-10T21:09:10.276Z,1.73
2022-09-10T21:11:38.627Z,1.70
2022-09-10T21:14:07.669Z,1.95
2022-09-10T21:16:39.470Z,1.40
2022-09-10T21:19:14.173Z,1.63
2022-09-10T21:21:44.834Z,1.50
2022-09-10T21:24:17.507Z,1.58
2022-09-10T21:26:45.119Z,1.52
2022-09-10T21:29:18.627Z,1.50
2022-09-10T21:31:50.801Z,1.30
2022-09-10T21:34:19.190Z,1.60
2022-09-10T21:36:46.476Z,1.50
2022-09-10T21:39:17.665Z,1.50
2022-09-10T21:41:48.426Z,1.40
2022-09-10T21:44:22.104Z,1.20
2022-09-10T21:46:50.385Z,1.23
2022-09-10T21:49:20.178Z,1.30
2022-09-10T21:51:47.617Z,1.10
2022-09-10T21:54:21.345Z,1.35
2022-09-10T21:56:50.996Z,1.17
2022-09-10T21:59:21.306Z,1.20
2022-09-10T22:01:49.101Z,0.98
2022-09-10T22:04:22.535Z,1.00
2022-09-10T22:06:51.854Z,1.40
2022-09-10T22:09:20.530Z,1.00
2022-09-10T22:11:51.837Z,1.10
2022-09-10T22:14:23.102Z,1.05
2022-09-10T22:16:51.781Z,1.20
2022-09-10T22:19:23.005Z,1.15
2022-09-10T22:21:51.089Z,1.10
2022-09-10T22:24:18.966Z,1.20
2022-09-10T22:26:48.471Z,1.08
2022-09-10T22:29:20.566Z,1.10
2022-09-10T22:31:50.100Z,1.30
2022-09-10T22:34:18.725Z,0.90
2022-09-10T22:36:48.409Z,1.10
2022-09-10T22:39:20.299Z,1.00
2022-09-10T22:41:49.326Z,0.93
2022-09-10T22:44:18.037Z,0.90
2022-09-10T22:46:45.357Z,1.00
2022-09-10T22:49:12.654Z,1.15
2022-09-10T22:51:43.962Z,1.10
2022-09-10T22:54:11.402Z,1.10
2022-09-10T22:56:39.997Z,1.20
2022-09-10T22:59:12.247Z,1.13
2022-09-10T23:01:40.446Z,1.15
2022-09-10T23:04:09.354Z,1.20
2022-09-10T23:06:38.642Z,1.13
2022-09-10T23:09:10.846Z,1.00
2022-09-10T23:11:39.499Z,1.10
2022-09-10T23:14:12.943Z,1.00
2022-09-10T23:16:44.526Z,1.05
2022-09-10T23:19:16.955Z,1.10
2022-09-10T23:21:48.678Z,1.10
2022-09-10T23:24:20.843Z,1.03
2022-09-10T23:29:19.934Z,1.05
2022-09-10T23:31:47.575Z,1.00
2022-09-10T23:34:18.810Z,1.00
2022-09-10T23:36:48.992Z,1.00
2022-09-10T23:39:19.972Z,1.00
2022-09-10T23:41:53.766Z,1.00
2022-09-10T23:44:22.153Z,1.15
2022-09-10T23:46:49.241Z,1.10
2022-09-10T23:49:16.760Z,1.02
2022-09-10T23:51:44.650Z,0.90
2022-09-10T23:54:12.086Z,1.15
2022-09-10T23:56:40.016Z,1.13
2022-09-10T23:59:09.438Z,1.02
